Time;durP1;ratioP1;P1;durP2;ratioP2;P2;SDS_P1;SDS_P2;PMS_P1;PMS_P2;Temp;Humidity;BMP_temperature;BMP_pressure;BME280_temperature;BME280_humidity;BME280_pressure;Samples;Min_cycle;Max_cycle;Signal;HPM_P1;HPM_P2
2022/04/22 00:02:12;;;;;;;7.18;3.00;;;;;;;7.80;82.54;100481.81;5075687;28;20190;-80
2022/04/22 00:04:39;;;;;;;8.70;3.30;;;;;;;7.76;82.44;100471.56;5051259;28;20045;-80
2022/04/22 00:07:07;;;;;;;7.15;2.88;;;;;;;7.75;82.63;100472.47;5071567;28;20514;-79
2022/04/22 00:09:34;;;;;;;7.95;2.97;;;;;;;7.67;83.81;100469.38;5054921;28;20049;-79
2022/04/22 00:12:01;;;;;;;6.45;2.97;;;;;;;7.66;83.90;100462.47;5074541;28;20124;-79
2022/04/22 00:14:28;;;;;;;5.78;2.70;;;;;;;7.55;84.15;100469.06;5038642;28;20143;-79
2022/04/22 00:16:55;;;;;;;7.28;2.85;;;;;;;7.46;84.84;100469.50;5054725;28;20074;-80
2022/04/22 00:19:22;;;;;;;9.32;3.80;;;;;;;7.38;84.65;100469.00;5059403;28;20582;-79
2022/04/22 00:21:50;;;;;;;7.82;4.03;;;;;;;7.34;84.99;100477.97;5053224;28;20053;-80
2022/04/22 00:24:17;;;;;;;9.18;3.47;;;;;;;7.29;85.16;100475.53;5065513;28;20069;-79
2022/04/22 00:26:44;;;;;;;8.95;3.45;;;;;;;7.27;85.71;100479.16;5061736;28;20493;-79
2022/04/22 00:29:11;;;;;;;12.75;3.50;;;;;;;7.20;86.07;100468.13;5059061;28;20112;-81
2022/04/22 00:31:39;;;;;;;10.05;3.45;;;;;;;7.14;86.00;100471.03;5061914;28;20144;-80
2022/04/22 00:34:06;;;;;;;8.93;3.45;;;;;;;7.04;86.70;100464.56;5042390;28;20407;-80
2022/04/22 00:36:33;;;;;;;10.60;3.83;;;;;;;7.00;86.87;100452.53;5040331;28;20110;-79
2022/04/22 00:39:05;;;;;;;10.23;4.57;;;;;;;6.96;87.36;100448.34;5061197;28;20060;-79
2022/04/22 00:41:32;;;;;;;10.57;4.05;;;;;;;6.99;87.22;100449.06;5025158;28;20067;-79
2022/04/22 00:43:59;;;;;;;8.98;3.92;;;;;;;6.89;87.91;100460.88;5077363;28;20087;-79
2022/04/22 00:46:26;;;;;;;9.55;4.18;;;;;;;6.82;87.98;100459.47;5057625;28;20041;-79
2022/04/22 00:48:53;;;;;;;8.10;3.83;;;;;;;6.77;88.55;100457.06;5058462;28;20044;-80
2022/04/22 00:51:22;;;;;;;11.88;3.97;;;;;;;6.74;88.45;100457.19;5061029;28;20147;-79
2022/04/22 00:53:51;;;;;;;9.63;4.50;;;;;;;6.64;89.03;100450.69;5075919;28;20056;-81
2022/04/22 00:56:19;;;;;;;10.02;4.65;;;;;;;6.59;89.89;100450.88;5057562;28;20064;-79
2022/04/22 00:58:48;;;;;;;12.02;3.80;;;;;;;6.54;90.01;100452.88;5041743;28;20048;-78
2022/04/22 01:01:16;;;;;;;13.50;4.43;;;;;;;6.51;90.16;100450.38;5035086;28;20069;-80
2022/04/22 01:12:08;;;;;;;10.38;5.40;;;;;;;6.24;92.65;100449.00;5066536;28;20208;-80
2022/04/22 01:14:39;;;;;;;11.18;4.80;;;;;;;6.20;93.31;100439.59;5051435;28;20113;-79
2022/04/22 01:17:06;;;;;;;14.43;5.72;;;;;;;6.16;93.08;100438.88;5065024;28;20048;-78
2022/04/22 01:19:33;;;;;;;15.80;5.60;;;;;;;6.12;93.69;100441.69;5059936;28;20053;-78
2022/04/22 01:22:01;;;;;;;13.13;5.30;;;;;;;6.07;94.19;100441.88;5059472;28;20056;-79
2022/04/22 01:24:29;;;;;;;10.10;4.97;;;;;;;6.03;94.88;100435.06;5071094;28;20264;-78
2022/04/22 01:26:57;;;;;;;10.35;4.80;;;;;;;5.97;94.37;100438.81;5055531;28;20049;-79
2022/04/22 01:29:24;;;;;;;12.40;5.55;;;;;;;5.95;94.74;100434.59;5058091;28;20045;-79
2022/04/22 01:31:52;;;;;;;12.32;5.15;;;;;;;5.92;94.75;100438.16;5071381;28;20075;-78
2022/04/22 01:34:19;;;;;;;10.23;4.38;;;;;;;5.87;95.69;100440.09;5042281;28;20094;-79
2022/04/22 01:36:47;;;;;;;9.68;4.45;;;;;;;5.84;95.95;100432.38;5046402;28;20044;-79
2022/04/22 01:39:14;;;;;;;17.10;5.35;;;;;;;5.83;95.94;100433.31;5046107;28;20048;-79
2022/04/22 01:41:41;;;;;;;9.38;4.45;;;;;;;5.78;96.45;100428.28;5042156;28;20070;-80
2022/04/22 01:44:08;;;;;;;12.45;5.13;;;;;;;5.73;96.51;100432.84;5043681;28;20530;-80
2022/04/22 01:46:36;;;;;;;19.80;6.53;;;;;;;5.69;97.30;100431.28;5049471;28;20053;-79
2022/04/22 01:49:06;;;;;;;11.98;5.90;;;;;;;5.65;97.66;100427.09;5065139;28;20053;-79
2022/04/22 01:51:34;;;;;;;9.98;5.22;;;;;;;5.65;98.42;100418.41;5086364;28;20063;-78
2022/04/22 01:54:01;;;;;;;14.65;5.68;;;;;;;5.63;98.75;100417.59;5049521;28;20503;-79
2022/04/22 01:56:28;;;;;;;11.80;5.85;;;;;;;5.63;98.79;100420.22;5037859;28;20036;-80
2022/04/22 01:58:55;;;;;;;12.05;5.65;;;;;;;5.56;98.86;100417.88;5044827;28;20400;-80
2022/04/22 02:01:23;;;;;;;14.98;5.30;;;;;;;5.53;99.83;100404.94;5035278;28;20055;-79
2022/04/22 02:03:50;;;;;;;13.10;5.57;;;;;;;5.52;99.47;100389.34;5060733;28;20066;-79
2022/04/22 02:06:17;;;;;;;12.45;5.68;;;;;;;5.55;99.42;100392.69;5052571;28;20061;-79
2022/04/22 02:08:44;;;;;;;11.73;5.82;;;;;;;5.60;99.13;100387.25;5059173;28;20049;-79
2022/04/22 02:11:11;;;;;;;10.52;5.00;;;;;;;5.55;99.19;100392.69;5060374;28;20143;-80
2022/04/22 02:13:38;;;;;;;18.63;6.10;;;;;;;5.55;99.66;100387.47;5064199;28;20227;-80
2022/04/22 02:16:07;;;;;;;15.32;6.57;;;;;;;5.51;99.67;100391.09;5061025;28;20127;-79
2022/04/22 02:18:37;;;;;;;15.13;5.90;;;;;;;5.51;100.00;100383.28;5021302;28;20183;-79
2022/04/22 02:21:06;;;;;;;13.85;5.32;;;;;;;5.54;100.00;100379.69;5038024;28;20057;-80
2022/04/22 02:23:33;;;;;;;13.52;5.72;;;;;;;5.58;100.00;100387.34;5059004;28;20104;-79
2022/04/22 02:26:02;;;;;;;15.45;5.80;;;;;;;5.61;99.64;100386.34;5034813;28;20055;-79
2022/04/22 02:28:32;;;;;;;16.95;6.07;;;;;;;5.59;100.00;100383.81;5042904;28;20052;-78
2022/04/22 02:31:10;;;;;;;14.15;6.38;;;;;;;5.59;100.00;100383.81;5028849;28;20145;-78
2022/04/22 02:33:38;;;;;;;13.60;6.00;;;;;;;5.63;99.90;100383.66;5041038;28;20055;-79
2022/04/22 02:36:07;;;;;;;16.05;6.25;;;;;;;5.65;100.00;100382.69;5041835;28;20060;-79
2022/04/22 02:38:34;;;;;;;16.00;6.03;;;;;;;5.68;100.00;100373.88;5059610;28;20062;-79
2022/04/22 02:46:32;;;;;;;14.68;5.50;;;;;;;5.75;99.74;100378.75;5051008;28;20416;-79
2022/04/22 02:49:00;;;;;;;12.23;6.75;;;;;;;5.75;100.00;100373.53;5039979;28;20051;-79
2022/04/22 02:51:28;;;;;;;13.20;6.45;;;;;;;5.80;100.00;100374.19;5030963;28;20046;-79
2022/04/22 02:53:55;;;;;;;14.52;5.53;;;;;;;5.81;99.66;100375.06;5036683;28;20072;-78
2022/04/22 02:56:23;;;;;;;13.73;5.45;;;;;;;5.80;99.41;100371.56;5040215;28;20051;-79
2022/04/22 02:58:50;;;;;;;12.85;6.00;;;;;;;5.77;99.60;100365.66;5046750;28;20170;-79
2022/04/22 03:01:18;;;;;;;18.75;7.75;;;;;;;5.83;99.75;100368.84;5072886;28;20392;-79
2022/04/22 03:03:45;;;;;;;11.15;5.57;;;;;;;5.84;98.92;100373.13;5072564;28;20087;-80
2022/04/22 03:06:13;;;;;;;13.68;6.38;;;;;;;5.85;99.18;100366.16;5021811;28;20037;-79
2022/04/22 03:08:40;;;;;;;12.77;6.10;;;;;;;5.81;99.14;100357.63;5056916;28;20124;-79
2022/04/22 03:11:07;;;;;;;15.70;6.38;;;;;;;5.74;99.81;100358.78;5045664;28;20052;-80
2022/04/22 03:13:34;;;;;;;18.08;6.93;;;;;;;5.73;99.26;100370.16;5050217;28;20044;-79
2022/04/22 03:16:02;;;;;;;17.55;6.80;;;;;;;5.76;99.02;100364.81;5068030;28;20139;-79
2022/04/22 03:18:30;;;;;;;14.82;6.78;;;;;;;5.73;99.46;100364.94;5044175;28;20056;-78
2022/04/22 03:20:58;;;;;;;11.88;6.32;;;;;;;5.68;99.61;100356.44;5046838;28;20440;-79
2022/04/22 03:23:25;;;;;;;12.63;5.40;;;;;;;5.70;99.89;100354.59;5063841;28;20044;-78
2022/04/22 03:25:55;;;;;;;14.93;6.38;;;;;;;5.77;99.43;100352.59;5069921;28;20060;-80
2022/04/22 03:28:23;;;;;;;16.25;6.53;;;;;;;5.71;98.99;100342.41;5071222;28;20142;-81
2022/04/22 03:30:51;;;;;;;16.52;6.90;;;;;;;5.70;99.04;100340.72;5022487;28;20087;-79
2022/04/22 03:33:19;;;;;;;10.55;6.25;;;;;;;5.64;99.57;100343.59;5042249;28;20051;-78
2022/04/22 03:35:50;;;;;;;14.75;6.28;;;;;;;5.58;100.00;100345.56;5056530;28;20427;-79
2022/04/22 03:38:19;;;;;;;14.00;7.05;;;;;;;5.53;99.91;100346.66;5045370;28;20059;-79
2022/04/22 03:40:47;;;;;;;13.85;7.03;;;;;;;5.48;100.00;100349.44;5066821;28;20146;-79
2022/04/22 03:43:18;;;;;;;13.50;6.20;;;;;;;5.48;100.00;100346.84;5037034;28;20082;-80
2022/04/22 03:45:46;;;;;;;13.55;6.32;;;;;;;5.47;100.00;100350.38;5042543;28;20044;-79
2022/04/22 03:48:16;;;;;;;12.98;6.03;;;;;;;5.45;100.00;100341.78;5027840;28;20060;-80
2022/04/22 03:50:43;;;;;;;14.52;6.25;;;;;;;5.45;100.00;100336.56;5038045;28;20136;-80
2022/04/22 03:53:14;;;;;;;11.95;6.63;;;;;;;5.47;100.00;100334.72;5034330;28;20069;-79
2022/04/22 03:55:43;;;;;;;16.83;7.03;;;;;;;5.44;100.00;100339.19;5069610;28;20049;-80
2022/04/22 03:58:11;;;;;;;13.30;6.57;;;;;;;5.46;100.00;100342.63;5043994;28;20112;-79
2022/04/22 04:00:48;;;;;;;16.50;6.63;;;;;;;5.48;100.00;100353.81;5068003;28;20057;-80
2022/04/22 04:03:20;;;;;;;18.92;6.82;;;;;;;5.53;100.00;100360.53;5073758;28;20207;-80
2022/04/22 04:05:49;;;;;;;15.50;6.80;;;;;;;5.56;100.00;100356.97;5053078;28;20051;-80
2022/04/22 04:08:18;;;;;;;11.38;5.97;;;;;;;5.59;100.00;100346.41;5080789;28;20048;-79
2022/04/22 04:16:17;;;;;;;17.60;6.78;;;;;;;5.56;100.00;100329.09;5042730;28;19943;-79
2022/04/22 04:18:44;;;;;;;16.23;7.20;;;;;;;5.58;99.80;100337.72;5038989;28;20255;-80
2022/04/22 04:24:03;;;;;;;22.42;7.60;;;;;;;5.52;99.56;100335.34;5055870;28;20053;-80
2022/04/22 04:26:30;;;;;;;22.42;7.57;;;;;;;5.52;99.95;100335.34;5058322;28;20573;-80
2022/04/22 04:28:58;;;;;;;15.15;6.72;;;;;;;5.61;99.74;100343.72;5023091;28;20107;-79
2022/04/22 04:31:26;;;;;;;16.35;6.80;;;;;;;5.64;99.52;100346.19;5044887;28;20568;-79
2022/04/22 04:33:53;;;;;;;14.65;6.97;;;;;;;5.62;99.41;100345.41;5058451;28;20176;-80
2022/04/22 04:36:20;;;;;;;14.57;6.75;;;;;;;5.61;99.38;100352.41;5055853;28;20072;-79
2022/04/22 04:38:47;;;;;;;16.02;6.88;;;;;;;5.61;99.88;100341.09;5028339;28;20052;-80
2022/04/22 04:41:15;;;;;;;12.48;6.55;;;;;;;5.65;99.40;100340.06;5058394;28;20055;-79
2022/04/22 04:43:42;;;;;;;12.05;6.65;;;;;;;5.61;99.92;100338.50;5066311;28;20049;-79
2022/04/22 04:46:09;;;;;;;16.00;6.22;;;;;;;5.63;99.67;100329.69;5060343;28;20052;-79
2022/04/22 04:48:37;;;;;;;17.38;6.85;;;;;;;5.69;98.82;100334.63;5062477;28;20051;-79
2022/04/22 04:51:05;;;;;;;16.33;6.88;;;;;;;5.82;98.63;100337.56;5060711;28;20072;-80
2022/04/22 04:53:32;;;;;;;17.38;6.50;;;;;;;5.91;98.56;100346.78;5062086;28;20067;-80
2022/04/22 04:56:00;;;;;;;15.43;7.28;;;;;;;6.03;97.92;100341.00;5053309;28;20049;-79
2022/04/22 04:58:27;;;;;;;14.88;7.13;;;;;;;6.01;97.56;100340.25;5064076;28;20048;-79
2022/04/22 05:00:54;;;;;;;15.18;7.07;;;;;;;6.10;96.98;100352.91;5051908;28;20051;-80
2022/04/22 05:03:22;;;;;;;16.75;6.80;;;;;;;6.17;97.05;100343.88;5068929;28;20044;-81
2022/04/22 05:05:49;;;;;;;16.23;7.75;;;;;;;6.25;96.20;100351.34;5041740;28;20982;-79
2022/04/22 05:08:16;;;;;;;17.88;7.03;;;;;;;6.28;96.26;100352.06;5068219;28;20058;-79
2022/04/22 05:10:43;;;;;;;11.45;6.68;;;;;;;6.36;95.67;100356.94;5057459;28;20115;-79
2022/04/22 05:13:10;;;;;;;18.63;7.47;;;;;;;6.43;95.14;100354.88;5031794;28;20078;-80
2022/04/22 05:15:39;;;;;;;17.10;6.90;;;;;;;6.58;95.02;100348.97;5071409;28;20064;-80
2022/04/22 05:18:06;;;;;;;16.92;7.22;;;;;;;6.65;94.25;100359.97;5075372;28;20147;-79
2022/04/22 05:20:34;;;;;;;17.83;7.15;;;;;;;6.76;93.85;100349.88;5058739;28;20160;-80
2022/04/22 05:23:01;;;;;;;16.35;6.80;;;;;;;6.83;93.03;100357.34;5063189;28;20223;-80
2022/04/22 05:25:29;;;;;;;14.32;6.90;;;;;;;6.95;92.89;100344.59;5047838;28;20128;-79
2022/04/22 05:27:56;;;;;;;18.85;7.60;;;;;;;7.08;92.19;100338.69;5033121;28;20053;-79
2022/04/22 05:33:10;;;;;;;15.50;6.82;;;;;;;7.25;91.01;100330.00;5066054;28;20104;-78
2022/04/22 05:35:37;;;;;;;14.63;6.47;;;;;;;7.26;90.80;100326.47;5060730;28;20148;-78
2022/04/22 05:38:05;;;;;;;17.77;7.30;;;;;;;7.32;90.90;100335.78;5049251;28;20184;-79
2022/04/22 05:40:35;;;;;;;17.63;7.80;;;;;;;7.38;90.01;100332.84;5027212;28;20144;-78
2022/04/22 05:43:03;;;;;;;14.80;7.57;;;;;;;7.33;90.15;100330.44;5065000;28;20054;-80
2022/04/22 05:45:31;;;;;;;14.20;6.90;;;;;;;7.27;90.37;100332.53;5054520;28;20052;-78
2022/04/22 05:47:58;;;;;;;14.80;7.28;;;;;;;7.22;90.79;100330.16;5040759;28;20128;-79
2022/04/22 05:50:27;;;;;;;12.77;7.32;;;;;;;7.27;90.96;100327.31;5048163;28;20052;-79
2022/04/22 05:52:55;;;;;;;12.98;7.07;;;;;;;7.39;90.71;100331.94;5035105;28;20181;-78
2022/04/22 05:55:27;;;;;;;16.08;6.97;;;;;;;7.68;89.95;100329.59;5053141;28;20124;-79
2022/04/22 05:57:55;;;;;;;16.60;7.85;;;;;;;7.84;88.29;100335.75;5045099;28;20049;-79
2022/04/22 06:00:25;;;;;;;12.10;6.93;;;;;;;8.02;87.91;100341.78;5047441;28;20525;-79
2022/04/22 06:02:53;;;;;;;17.42;6.88;;;;;;;8.30;86.78;100339.38;5061431;28;20040;-81
2022/04/22 06:05:22;;;;;;;16.10;6.40;;;;;;;8.49;85.57;100336.63;5051519;28;20053;-80
2022/04/22 06:10:31;;;;;;;10.77;6.97;;;;;;;8.48;84.83;100340.19;5063738;28;20120;-79
2022/04/22 06:10:39;;;;;;;11.85;6.45;;;;;;;8.33;85.67;100333.09;5061716;28;20063;-80
2022/04/22 06:13:06;;;;;;;20.42;6.97;;;;;;;8.28;85.38;100327.28;5069490;28;20078;-79
2022/04/22 06:15:34;;;;;;;16.85;6.70;;;;;;;8.19;86.31;100319.91;5076852;28;20518;-79
2022/04/22 06:18:04;;;;;;;12.93;6.45;;;;;;;8.21;86.50;100316.28;5082916;28;20100;-80
2022/04/22 06:20:31;;;;;;;15.30;6.80;;;;;;;8.28;85.97;100314.16;5048237;28;20064;-79
2022/04/22 06:23:00;;;;;;;17.00;7.63;;;;;;;8.44;85.59;100319.47;5059609;28;20053;-80
2022/04/22 06:25:28;;;;;;;10.65;6.38;;;;;;;8.71;84.46;100317.94;5016355;28;20095;-79
2022/04/22 06:27:55;;;;;;;14.93;6.43;;;;;;;8.99;83.66;100317.19;5062389;28;20048;-80
2022/04/22 06:30:24;;;;;;;11.32;6.28;;;;;;;9.24;82.87;100323.69;5054773;28;20057;-79
2022/04/22 06:32:52;;;;;;;12.07;6.88;;;;;;;9.26;81.43;100327.06;5041119;28;20047;-80
2022/04/22 06:35:23;;;;;;;13.10;5.93;;;;;;;9.28;81.17;100328.66;5059084;28;20059;-80
2022/04/22 06:37:52;;;;;;;16.58;6.28;;;;;;;9.47;80.40;100340.72;5044904;28;20048;-79
2022/04/22 06:45:56;;;;;;;14.48;6.47;;;;;;;9.76;77.68;100352.13;5071149;28;20172;-80
2022/04/22 06:48:33;;;;;;;12.20;6.35;;;;;;;9.84;76.31;100342.84;5041737;28;20041;-80
2022/04/22 06:51:11;;;;;;;13.82;6.30;;;;;;;9.95;76.08;100350.09;5036285;28;20059;-80
2022/04/22 06:53:39;;;;;;;11.88;6.47;;;;;;;9.98;76.37;100341.16;5050174;28;20495;-80
2022/04/22 06:56:07;;;;;;;10.77;6.47;;;;;;;10.06;76.05;100345.00;5037037;28;20076;-80
2022/04/22 06:58:37;;;;;;;11.73;6.22;;;;;;;10.05;75.83;100348.59;5042941;28;20509;-80
2022/04/22 07:01:07;;;;;;;14.82;6.03;;;;;;;9.90;76.56;100337.19;5047342;28;20112;-79
2022/04/22 07:03:54;;;;;;;15.90;6.30;;;;;;;9.92;75.88;100333.66;5050828;28;20160;-80
2022/04/22 07:06:21;;;;;;;18.60;6.28;;;;;;;10.06;75.95;100337.13;5041217;28;20307;-79
2022/04/22 07:08:49;;;;;;;11.98;6.28;;;;;;;10.13;74.79;100330.56;5059847;28;20070;-79
2022/04/22 07:11:24;;;;;;;13.48;6.55;;;;;;;10.22;74.46;100336.16;5038811;28;20189;-80
2022/04/22 07:13:53;;;;;;;13.52;6.18;;;;;;;10.26;73.78;100341.19;5044304;28;20059;-80
2022/04/22 07:16:20;;;;;;;11.90;6.22;;;;;;;10.24;72.94;100337.81;5042430;28;20059;-80
2022/04/22 07:18:47;;;;;;;10.68;5.68;;;;;;;10.17;73.19;100339.09;5021010;28;20160;-80
2022/04/22 07:21:16;;;;;;;17.77;6.93;;;;;;;10.37;72.51;100344.00;5043206;28;20087;-79
2022/04/22 07:23:43;;;;;;;10.77;5.80;;;;;;;10.52;71.72;100341.34;5044400;28;20123;-80
2022/04/22 07:26:11;;;;;;;14.82;6.65;;;;;;;10.78;70.81;100337.91;5057059;28;20050;-80
2022/04/22 07:28:38;;;;;;;17.20;5.60;;;;;;;11.08;70.59;100342.97;5048195;28;20048;-79
2022/04/22 07:31:08;;;;;;;11.35;6.05;;;;;;;11.31;68.89;100332.72;5059885;28;20052;-80
2022/04/22 07:33:36;;;;;;;25.08;6.95;;;;;;;11.41;68.77;100337.25;5042209;28;20044;-80
2022/04/22 07:36:03;;;;;;;13.85;6.25;;;;;;;11.30;68.17;100334.50;5055374;28;20045;-80
2022/04/22 07:38:30;;;;;;;8.88;5.75;;;;;;;11.33;68.24;100331.63;5056480;28;20055;-79
2022/04/22 07:40:57;;;;;;;10.10;6.07;;;;;;;11.39;68.23;100341.78;5072671;28;20057;-79
2022/04/22 07:48:58;;;;;;;16.65;7.30;;;;;;;11.41;68.41;100339.03;5041264;28;20055;-79
2022/04/22 07:51:25;;;;;;;11.38;6.72;;;;;;;11.33;68.73;100334.28;5033200;28;20049;-78
2022/04/22 07:53:55;;;;;;;12.82;6.55;;;;;;;11.26;69.21;100338.28;5043831;28;20056;-79
2022/04/22 07:56:23;;;;;;;15.02;6.95;;;;;;;11.20;70.01;100338.66;5061079;28;20545;-79
2022/04/22 07:58:51;;;;;;;14.23;7.30;;;;;;;11.13;69.68;100347.94;5060750;28;20049;-78
2022/04/22 08:01:18;;;;;;;12.43;7.43;;;;;;;11.03;70.55;100345.06;5044512;28;20070;-78
2022/04/22 08:03:46;;;;;;;15.57;7.70;;;;;;;11.04;71.12;100357.28;5057338;28;20067;-79
2022/04/22 08:06:13;;;;;;;13.45;7.70;;;;;;;11.14;70.90;100353.09;5050428;28;20052;-78
2022/04/22 08:08:40;;;;;;;12.15;7.82;;;;;;;11.25;70.88;100351.53;5042337;28;20426;-79
2022/04/22 08:11:08;;;;;;;13.13;8.00;;;;;;;11.36;70.75;100338.50;5042871;28;20053;-78
2022/04/22 08:13:35;;;;;;;17.88;9.30;;;;;;;11.59;71.04;100343.06;5069370;28;20179;-78
2022/04/22 08:16:03;;;;;;;11.38;7.53;;;;;;;11.60;71.06;100341.28;5051160;28;20060;-79
2022/04/22 08:18:30;;;;;;;16.63;9.05;;;;;;;11.78;71.34;100350.56;5045379;28;20068;-79
2022/04/22 08:20:58;;;;;;;12.65;8.45;;;;;;;11.85;70.36;100346.63;5061442;28;20214;-80
2022/04/22 08:23:25;;;;;;;14.82;8.45;;;;;;;11.74;71.75;100341.19;5052021;28;20048;-80
2022/04/22 08:25:52;;;;;;;12.55;8.57;;;;;;;11.85;72.53;100348.41;5041616;28;20062;-80
2022/04/22 08:28:20;;;;;;;19.45;9.10;;;;;;;11.98;71.81;100346.63;5045400;28;20079;-79
2022/04/22 08:30:47;;;;;;;16.75;8.82;;;;;;;12.15;71.66;100342.78;5050015;28;20060;-79
2022/04/22 08:33:15;;;;;;;13.57;8.40;;;;;;;12.25;70.66;100335.06;5045511;28;20052;-80
2022/04/22 08:35:42;;;;;;;16.50;8.45;;;;;;;12.39;70.42;100334.94;5041747;28;20060;-80
2022/04/22 08:38:09;;;;;;;15.05;8.77;;;;;;;12.49;69.94;100340.41;5026165;28;20063;-80
2022/04/22 08:40:39;;;;;;;16.35;8.48;;;;;;;12.46;69.54;100348.53;5051261;28;20053;-79
2022/04/22 08:43:06;;;;;;;13.27;8.77;;;;;;;12.60;69.13;100343.13;5062961;28;20112;-79
2022/04/22 08:45:35;;;;;;;12.05;9.15;;;;;;;12.61;69.24;100340.38;5045089;28;20168;-79
2022/04/22 08:50:51;;;;;;;13.88;8.77;;;;;;;12.88;67.88;100334.91;5060013;28;20091;-79
2022/04/22 08:53:23;;;;;;;14.55;9.07;;;;;;;13.05;67.74;100316.94;5044634;28;20256;-79
2022/04/22 08:55:56;;;;;;;13.43;8.85;;;;;;;13.12;66.56;100328.75;5057446;28;20087;-78
2022/04/22 08:58:26;;;;;;;14.68;8.82;;;;;;;13.21;66.65;100321.94;5058489;28;20167;-78
2022/04/22 09:00:55;;;;;;;17.10;9.85;;;;;;;13.61;64.82;100320.66;5032638;28;20059;-78
2022/04/22 09:03:22;;;;;;;15.25;8.23;;;;;;;13.92;64.43;100313.84;5045726;28;20056;-79
2022/04/22 09:05:49;;;;;;;13.32;8.32;;;;;;;14.17;63.11;100315.41;5041666;28;20048;-78
2022/04/22 09:08:18;;;;;;;11.73;8.23;;;;;;;14.34;63.62;100315.88;5041747;28;20052;-79
2022/04/22 09:10:51;;;;;;;14.35;8.98;;;;;;;14.37;62.83;100318.28;5048318;28;20144;-79
2022/04/22 09:13:26;;;;;;;14.23;8.13;;;;;;;14.30;62.17;100322.38;5065199;28;20116;-79
2022/04/22 09:15:54;;;;;;;11.70;8.30;;;;;;;14.07;63.35;100310.97;5048130;28;20055;-78
2022/04/22 09:18:39;;;;;;;13.98;7.72;;;;;;;14.04;63.77;100312.03;5040777;28;20063;-79
2022/04/22 09:21:13;;;;;;;14.63;8.20;;;;;;;13.87;64.84;100309.88;5041832;28;20049;-81
2022/04/22 09:23:41;;;;;;;17.17;8.95;;;;;;;13.70;65.18;100310.34;5042650;28;20060;-79
2022/04/22 09:26:24;;;;;;;15.52;8.55;;;;;;;13.85;65.25;100312.63;5034138;28;20051;-79
2022/04/22 09:28:59;;;;;;;13.95;8.57;;;;;;;13.78;65.98;100306.13;5043431;28;20085;-80
2022/04/22 09:31:27;;;;;;;13.52;9.20;;;;;;;13.80;66.09;100314.78;5040929;28;20116;-80
2022/04/22 09:43:49;;;;;;;16.88;9.77;;;;;;;14.31;66.84;100313.47;5003400;28;20064;-80
2022/04/22 09:46:22;;;;;;;19.50;10.15;;;;;;;14.47;66.58;100316.59;5028202;28;20068;-80
2022/04/22 09:48:50;;;;;;;18.92;11.07;;;;;;;14.39;66.99;100311.06;5062126;28;20056;-80
2022/04/22 09:51:27;;;;;;;22.17;12.20;;;;;;;14.53;66.47;100310.81;5058046;28;20041;-80
2022/04/22 09:54:02;;;;;;;17.75;11.40;;;;;;;14.57;66.68;100311.41;5042372;28;20112;-80
2022/04/22 09:56:29;;;;;;;16.42;11.90;;;;;;;14.79;66.24;100311.34;5031827;28;20135;-81
2022/04/22 09:58:57;;;;;;;19.08;14.05;;;;;;;14.74;66.07;100302.13;5027717;28;20044;-79
2022/04/22 10:01:24;;;;;;;20.33;13.32;;;;;;;14.71;66.39;100295.25;5039395;28;20400;-80
2022/04/22 10:04:12;;;;;;;18.25;12.85;;;;;;;14.58;67.10;100313.94;5061787;28;20057;-80
2022/04/22 10:06:40;;;;;;;18.90;12.85;;;;;;;14.53;67.67;100310.81;5062359;28;20064;-79
2022/04/22 10:09:09;;;;;;;18.98;12.18;;;;;;;14.49;67.36;100313.84;5060972;28;20052;-80
2022/04/22 10:11:38;;;;;;;18.60;12.80;;;;;;;14.27;67.32;100312.00;5065884;28;20529;-80
2022/04/22 10:14:44;;;;;;;20.65;13.10;;;;;;;14.20;67.65;100306.38;5042863;28;20041;-79
2022/04/22 10:17:11;;;;;;;14.63;12.23;;;;;;;14.17;67.67;100302.16;5005088;28;20060;-80
2022/04/22 10:19:41;;;;;;;20.67;14.48;;;;;;;14.19;68.34;100304.69;4998788;28;20069;-79
2022/04/22 10:22:10;;;;;;;16.83;13.02;;;;;;;14.22;68.12;100299.16;5022044;28;20541;-80
2022/04/22 10:24:37;;;;;;;17.67;13.60;;;;;;;14.16;68.72;100304.94;5028916;28;20063;-80
2022/04/22 10:27:07;;;;;;;23.33;13.05;;;;;;;14.19;68.39;100305.53;5041328;28;20057;-79
2022/04/22 10:29:57;;;;;;;17.23;12.60;;;;;;;14.02;69.86;100294.59;5042522;28;20051;-80
2022/04/22 10:32:24;;;;;;;17.85;12.90;;;;;;;14.08;69.69;100302.03;5042206;28;20045;-80
2022/04/22 10:34:59;;;;;;;21.65;13.45;;;;;;;14.08;69.67;100300.25;5044828;28;20056;-80
2022/04/22 10:37:27;;;;;;;18.35;13.32;;;;;;;14.09;69.39;100293.97;5038490;28;20053;-79
2022/04/22 10:39:59;;;;;;;21.77;12.85;;;;;;;14.13;69.18;100299.88;5041887;28;20056;-81
2022/04/22 10:42:34;;;;;;;17.30;13.57;;;;;;;13.86;70.22;100294.94;5059028;28;20128;-80
2022/04/22 10:47:53;;;;;;;20.98;14.65;;;;;;;13.75;71.93;100287.84;5065888;28;20076;-80
2022/04/22 10:50:34;;;;;;;18.70;14.00;;;;;;;13.72;71.55;100284.59;5037613;28;20169;-80
2022/04/22 10:53:05;;;;;;;21.48;14.27;;;;;;;13.65;71.82;100276.31;5042867;28;20432;-80
2022/04/22 10:55:36;;;;;;;16.40;13.63;;;;;;;13.65;71.83;100292.16;5036501;28;20048;-80
2022/04/22 10:58:24;;;;;;;17.10;12.68;;;;;;;13.58;71.58;100288.31;5068048;28;20044;-80
2022/04/22 11:00:54;;;;;;;20.02;13.98;;;;;;;13.54;71.82;100281.56;5046120;28;20096;-80
2022/04/22 11:03:23;;;;;;;19.05;13.25;;;;;;;13.64;71.30;100286.03;5028262;28;20044;-79
2022/04/22 11:05:57;;;;;;;18.17;14.95;;;;;;;13.72;71.57;100289.88;5036248;28;20055;-80
2022/04/22 11:08:32;;;;;;;19.00;15.15;;;;;;;13.72;71.09;100287.22;5058438;28;20052;-79
2022/04/22 11:11:18;;;;;;;18.77;15.10;;;;;;;13.65;71.00;100289.53;5054677;28;20080;-80
2022/04/22 11:13:46;;;;;;;;;;;;;;;13.61;71.07;100288.91;5044779;28;20058;-79
2022/04/22 11:16:19;;;;;;;20.80;14.40;;;;;;;13.48;71.72;100298.75;5049648;28;19931;-79
2022/04/22 11:19:18;;;;;;;19.23;14.80;;;;;;;13.42;72.35;100294.78;5067639;28;20064;-79
2022/04/22 11:21:47;;;;;;;18.27;14.98;;;;;;;13.40;72.40;100295.84;5061273;28;20055;-80
2022/04/22 11:24:19;;;;;;;18.98;15.80;;;;;;;13.38;72.68;100295.13;5041067;28;20064;-79
2022/04/22 11:26:46;;;;;;;21.85;16.10;;;;;;;13.37;72.81;100296.06;5040712;28;20140;-79
2022/04/22 11:29:15;;;;;;;22.45;16.02;;;;;;;13.40;72.59;100298.47;5061680;28;20116;-79
2022/04/22 11:32:02;;;;;;;18.15;16.00;;;;;;;13.33;73.29;100294.63;5059028;28;20399;-79
2022/04/22 11:35:05;;;;;;;24.23;18.77;;;;;;;13.18;73.58;100297.41;5054876;28;20150;-80
2022/04/22 11:37:33;;;;;;;29.35;18.88;;;;;;;13.23;73.89;100289.16;5060626;28;20076;-80
2022/04/22 11:40:01;;;;;;;22.45;18.33;;;;;;;13.30;73.42;100294.84;5058735;28;20044;-80
2022/04/22 11:42:28;;;;;;;23.52;18.70;;;;;;;13.20;73.81;100294.69;5057610;28;20149;-79
2022/04/22 11:45:06;;;;;;;28.15;19.52;;;;;;;13.08;74.29;100296.44;5056512;28;20169;-79
2022/04/22 11:47:33;;;;;;;26.65;20.08;;;;;;;13.07;74.88;100305.31;5040260;28;20048;-80
2022/04/22 11:50:00;;;;;;;23.30;20.13;;;;;;;13.17;74.17;100310.75;5058580;28;20063;-80
2022/04/22 11:52:29;;;;;;;27.38;19.63;;;;;;;13.30;73.55;100308.06;5033653;28;20052;-79
2022/04/22 11:55:01;;;;;;;26.60;20.75;;;;;;;13.16;73.74;100299.34;5037596;28;20053;-79
2022/04/22 11:57:37;;;;;;;25.88;20.20;;;;;;;12.95;75.01;100308.84;5030645;28;20062;-79
2022/04/22 12:05:49;;;;;;;26.48;21.23;;;;;;;12.62;78.10;100317.47;5045180;28;20056;-80
2022/04/22 12:08:17;;;;;;;30.00;21.55;;;;;;;12.57;78.63;100320.44;5043821;28;20063;-80
2022/04/22 12:10:50;;;;;;;29.50;22.42;;;;;;;12.44;80.14;100317.00;5021820;28;21527;-80
2022/04/22 12:13:18;;;;;;;29.92;24.13;;;;;;;12.41;80.45;100311.91;5078983;28;20074;-80
2022/04/22 12:15:48;;;;;;;28.25;23.10;;;;;;;12.44;80.36;100316.16;5073772;28;20053;-80
2022/04/22 12:18:36;;;;;;;27.27;22.63;;;;;;;12.39;80.55;100308.56;5031671;28;20427;-79
2022/04/22 12:21:04;;;;;;;26.25;21.95;;;;;;;12.42;80.30;100305.69;5045554;28;20434;-80
2022/04/22 12:23:39;;;;;;;26.13;22.75;;;;;;;12.52;79.62;100303.22;5039830;28;20037;-80
2022/04/22 12:26:34;;;;;;;;;;;;;;;12.67;79.35;100297.69;5046091;28;20063;-79
2022/04/22 12:29:09;;;;;;;25.58;21.88;;;;;;;12.86;78.28;100299.81;5078538;28;19992;-80